createdAt,value
2023-04-17T00:01:56.745Z,9.50
2023-04-17T00:04:23.486Z,9.40
2023-04-17T00:06:53.649Z,9.40
2023-04-17T00:09:20.376Z,9.40
2023-04-17T00:11:46.976Z,9.40
2023-04-17T00:14:13.584Z,9.40
2023-04-17T00:16:40.700Z,9.40
2023-04-17T00:19:07.444Z,9.40
2023-04-17T00:21:34.123Z,9.40
2023-04-17T00:24:00.812Z,9.40
2023-04-17T00:26:27.354Z,9.40
2023-04-17T00:28:53.976Z,9.40
2023-04-17T00:31:20.801Z,9.40
2023-04-17T00:33:47.478Z,9.40
2023-04-17T00:36:15.420Z,9.40
2023-04-17T00:38:42.084Z,9.40
2023-04-17T00:41:08.804Z,9.40
2023-04-17T00:43:35.455Z,9.40
2023-04-17T00:46:02.112Z,9.40
2023-04-17T00:48:28.832Z,9.40
2023-04-17T00:50:55.543Z,9.40
2023-04-17T00:53:22.678Z,9.40
2023-04-17T00:55:50.266Z,9.40
2023-04-17T00:58:17.019Z,9.40
2023-04-17T01:00:44.418Z,9.50
2023-04-17T01:03:11.200Z,9.50
2023-04-17T01:05:38.368Z,9.50
2023-04-17T01:08:05.098Z,9.50
2023-04-17T01:10:31.627Z,9.50
2023-04-17T01:13:04.517Z,9.40
2023-04-17T01:15:31.187Z,9.40
2023-04-17T01:17:58.032Z,9.40
2023-04-17T01:20:31.146Z,9.40
2023-04-17T01:22:58.363Z,9.40
2023-04-17T01:25:25.387Z,9.40
2023-04-17T01:27:52.110Z,9.40
2023-04-17T01:30:18.953Z,9.40
2023-04-17T01:32:45.681Z,9.40
2023-04-17T01:35:12.342Z,9.40
2023-04-17T01:37:38.954Z,9.40
2023-04-17T01:40:07.043Z,9.40
2023-04-17T01:42:34.178Z,9.40
2023-04-17T01:45:00.817Z,9.40
2023-04-17T01:47:27.454Z,9.40
2023-04-17T01:49:54.089Z,9.40
2023-04-17T01:52:21.049Z,9.40
2023-04-17T01:54:47.563Z,9.40
2023-04-17T01:57:14.098Z,9.40
2023-04-17T01:59:40.736Z,9.40
2023-04-17T02:02:07.406Z,9.40
2023-04-17T02:04:34.060Z,9.40
2023-04-17T02:07:00.650Z,9.40
2023-04-17T02:09:28.730Z,9.40
2023-04-17T02:11:56.193Z,9.40
2023-04-17T02:14:22.818Z,9.40
2023-04-17T02:16:50.151Z,9.40
2023-04-17T02:19:16.752Z,9.40
2023-04-17T02:21:43.399Z,9.30
2023-04-17T02:24:10.237Z,9.30
2023-04-17T02:26:37.040Z,9.30
2023-04-17T02:29:03.696Z,9.40
2023-04-17T02:31:30.757Z,9.40
2023-04-17T02:33:57.364Z,9.40
2023-04-17T02:36:24.016Z,9.30
2023-04-17T02:38:50.580Z,9.40
2023-04-17T02:41:17.254Z,9.30
2023-04-17T02:43:43.788Z,9.40
2023-04-17T02:46:10.589Z,9.40
2023-04-17T02:48:37.185Z,9.40
2023-04-17T02:51:04.018Z,9.40
2023-04-17T02:53:30.648Z,9.30
2023-04-17T02:55:57.800Z,9.30
2023-04-17T02:58:24.439Z,9.40
2023-04-17T03:00:51.212Z,9.30
2023-04-17T03:03:17.948Z,9.40
2023-04-17T03:05:44.891Z,9.40
2023-04-17T03:08:11.664Z,9.30
2023-04-17T03:10:38.235Z,9.40
2023-04-17T03:13:04.827Z,9.40
2023-04-17T03:15:31.456Z,9.40
2023-04-17T03:17:58.095Z,9.40
2023-04-17T03:20:24.692Z,9.40
2023-04-17T03:22:51.343Z,9.40
2023-04-17T03:25:17.983Z,9.40
2023-04-17T03:27:44.697Z,9.40
2023-04-17T03:30:11.568Z,9.30
2023-04-17T03:32:38.310Z,9.40
2023-04-17T03:35:05.443Z,9.40
2023-04-17T03:37:32.297Z,9.40
2023-04-17T03:39:58.988Z,9.30
2023-04-17T03:42:26.635Z,9.40
2023-04-17T03:44:53.229Z,9.30
2023-04-17T03:47:19.861Z,9.30
2023-04-17T03:49:46.482Z,9.30
2023-04-17T03:52:13.127Z,9.30
2023-04-17T03:54:39.762Z,9.30
2023-04-17T03:57:08.856Z,9.30
2023-04-17T03:59:35.581Z,9.30
2023-04-17T04:02:02.292Z,9.40
2023-04-17T04:04:29.176Z,9.40
2023-04-17T04:06:58.010Z,9.40
2023-04-17T04:09:27.362Z,9.30
2023-04-17T04:11:54.014Z,9.40
2023-04-17T04:14:20.733Z,9.40
2023-04-17T04:16:47.362Z,9.40
2023-04-17T04:19:14.212Z,9.40
2023-04-17T04:21:42.210Z,9.40
2023-04-17T04:24:10.648Z,9.40
2023-04-17T04:26:40.930Z,9.40
2023-04-17T04:29:07.660Z,9.40
2023-04-17T04:31:35.607Z,9.50
2023-04-17T04:34:02.475Z,9.40
2023-04-17T04:36:30.269Z,9.40
2023-04-17T04:38:59.759Z,9.50
2023-04-17T04:41:26.774Z,9.50
2023-04-17T04:43:54.318Z,9.50
2023-04-17T04:46:20.985Z,9.50
2023-04-17T04:48:47.715Z,9.50
2023-04-17T04:51:14.302Z,9.40
2023-04-17T04:53:40.933Z,9.50
2023-04-17T04:56:07.807Z,9.50
2023-04-17T04:58:38.467Z,9.40
2023-04-17T05:01:05.299Z,9.50
2023-04-17T05:03:32.202Z,9.40
2023-04-17T05:05:58.953Z,9.40
2023-04-17T05:08:25.586Z,9.40
2023-04-17T05:10:52.374Z,9.40
2023-04-17T05:13:18.969Z,9.40
2023-04-17T05:15:48.721Z,9.40
2023-04-17T05:18:15.519Z,9.40
2023-04-17T05:20:42.148Z,9.40
2023-04-17T05:23:08.730Z,9.40
2023-04-17T05:25:35.467Z,9.40
2023-04-17T05:28:02.066Z,9.40
2023-04-17T05:30:28.746Z,9.40
2023-04-17T05:32:55.489Z,9.40
2023-04-17T05:35:22.303Z,9.40
2023-04-17T05:37:48.923Z,9.40
2023-04-17T05:40:15.782Z,9.40
2023-04-17T05:42:42.416Z,9.40
2023-04-17T05:45:12.556Z,9.40
2023-04-17T05:47:39.121Z,9.30
2023-04-17T05:50:06.664Z,9.30
2023-04-17T05:52:33.337Z,9.30
2023-04-17T05:55:00.274Z,9.40
2023-04-17T05:57:26.941Z,9.40
2023-04-17T05:59:53.553Z,9.40
2023-04-17T06:02:20.441Z,9.50
2023-04-17T06:04:47.191Z,9.50
2023-04-17T06:07:17.157Z,9.50
2023-04-17T06:09:43.756Z,9.50
2023-04-17T06:12:15.887Z,9.40
2023-04-17T06:14:43.074Z,9.50
2023-04-17T06:17:09.953Z,9.50
2023-04-17T06:19:36.719Z,9.50
2023-04-17T06:22:03.320Z,9.60
2023-04-17T06:24:29.913Z,9.60
2023-04-17T06:26:56.611Z,9.60
2023-04-17T06:29:23.334Z,9.70
2023-04-17T06:31:49.972Z,9.80
2023-04-17T06:34:16.724Z,9.90
2023-04-17T06:36:43.372Z,10.00
2023-04-17T06:39:10.206Z,10.10
2023-04-17T06:41:36.933Z,10.00
2023-04-17T06:44:03.677Z,10.10
2023-04-17T06:46:30.352Z,10.00
2023-04-17T06:48:59.525Z,10.00
2023-04-17T06:51:27.690Z,9.90
2023-04-17T06:53:54.339Z,9.90
2023-04-17T06:56:21.395Z,9.90
2023-04-17T06:58:48.162Z,9.90
2023-04-17T07:01:15.014Z,9.90
2023-04-17T07:03:42.308Z,9.90
2023-04-17T07:06:09.440Z,9.90
2023-04-17T07:08:36.083Z,9.90
2023-04-17T07:11:02.676Z,10.00
2023-04-17T07:13:31.671Z,10.10
2023-04-17T07:15:59.327Z,10.10
2023-04-17T07:18:26.990Z,10.10
2023-04-17T07:20:53.699Z,10.10
2023-04-17T07:23:20.534Z,10.20
2023-04-17T07:25:47.275Z,10.00
2023-04-17T07:28:14.469Z,10.10
2023-04-17T07:30:42.641Z,10.10
2023-04-17T07:33:09.634Z,10.00
2023-04-17T07:35:36.279Z,9.90
2023-04-17T07:38:04.230Z,9.80
2023-04-17T07:40:31.496Z,9.80
2023-04-17T07:42:58.218Z,9.90
2023-04-17T07:45:24.859Z,9.80
2023-04-17T07:47:52.365Z,9.80
2023-04-17T07:50:19.110Z,10.00
2023-04-17T07:52:46.416Z,10.10
2023-04-17T07:55:13.211Z,10.20
2023-04-17T07:57:43.175Z,10.30
2023-04-17T08:00:11.375Z,10.50
2023-04-17T08:02:38.957Z,10.60
2023-04-17T08:05:07.130Z,10.90
2023-04-17T08:07:33.893Z,11.30
2023-04-17T08:10:00.757Z,11.70
2023-04-17T08:12:27.483Z,12.00
2023-04-17T08:14:54.018Z,12.00
2023-04-17T08:17:23.271Z,12.20
2023-04-17T08:19:50.872Z,12.60
2023-04-17T08:22:19.695Z,12.80
2023-04-17T08:24:46.917Z,12.90
2023-04-17T08:27:15.035Z,12.70
2023-04-17T08:29:42.152Z,12.00
2023-04-17T08:32:14.568Z,11.90
2023-04-17T08:34:44.316Z,11.20
2023-04-17T08:37:11.172Z,11.10
2023-04-17T08:39:38.008Z,11.30
2023-04-17T08:42:10.779Z,11.40
2023-04-17T08:44:39.892Z,12.10
2023-04-17T08:47:09.001Z,12.50
2023-04-17T08:49:36.044Z,12.90
2023-04-17T08:52:04.445Z,12.50
2023-04-17T08:54:33.285Z,13.10
2023-04-17T08:57:05.255Z,13.50
2023-04-17T08:59:33.268Z,13.60
2023-04-17T09:02:09.226Z,13.80
2023-04-17T09:04:40.550Z,14.20
2023-04-17T09:07:08.515Z,14.30
2023-04-17T09:09:55.018Z,14.50
2023-04-17T09:12:22.659Z,14.30
2023-04-17T09:14:49.280Z,14.10
2023-04-17T09:17:19.888Z,13.70
2023-04-17T09:20:04.089Z,14.60
2023-04-17T09:22:31.148Z,15.00
2023-04-17T09:24:57.956Z,16.30
2023-04-17T09:27:25.233Z,16.40
2023-04-17T09:30:10.231Z,15.40
2023-04-17T09:32:36.956Z,15.10
2023-04-17T09:35:04.719Z,14.30
2023-04-17T09:37:48.729Z,13.40
2023-04-17T09:40:15.717Z,13.70
2023-04-17T09:42:53.398Z,14.30
2023-04-17T09:45:20.542Z,14.60
2023-04-17T09:47:47.547Z,14.40
2023-04-17T09:50:18.205Z,13.80
2023-04-17T09:52:46.985Z,13.10
2023-04-17T09:55:14.803Z,13.40
2023-04-17T09:57:44.712Z,13.70
2023-04-17T10:00:14.760Z,14.40
2023-04-17T10:02:42.213Z,14.90
2023-04-17T10:05:10.601Z,15.20
2023-04-17T10:07:37.783Z,15.10
2023-04-17T10:10:09.198Z,15.70
2023-04-17T10:12:39.364Z,18.10
2023-04-17T10:15:07.095Z,20.50
2023-04-17T10:17:36.836Z,22.10
2023-04-17T10:20:17.617Z,21.90
2023-04-17T10:22:45.071Z,21.80
2023-04-17T10:25:12.594Z,20.30
2023-04-17T10:27:40.257Z,19.90
2023-04-17T10:30:10.369Z,20.30
2023-04-17T10:32:37.084Z,22.10
2023-04-17T10:35:16.236Z,20.60
2023-04-17T10:37:52.047Z,20.20
2023-04-17T10:40:22.165Z,18.20
2023-04-17T10:43:07.612Z,17.80
2023-04-17T10:45:54.069Z,16.60
2023-04-17T10:48:25.152Z,16.00
2023-04-17T10:50:52.024Z,15.40
2023-04-17T10:53:38.086Z,16.10
2023-04-17T10:56:05.003Z,17.60
2023-04-17T10:58:32.381Z,17.70
2023-04-17T11:01:02.429Z,19.10
2023-04-17T11:03:30.372Z,19.30
2023-04-17T11:06:00.468Z,19.00
2023-04-17T11:08:27.404Z,18.40
2023-04-17T11:11:02.112Z,16.90
2023-04-17T11:13:34.759Z,15.80
2023-04-17T11:16:03.291Z,16.00
2023-04-17T11:18:29.959Z,17.10
2023-04-17T11:20:57.218Z,18.30
2023-04-17T11:23:24.129Z,19.80
2023-04-17T11:25:50.820Z,19.90
2023-04-17T11:28:17.608Z,19.30
2023-04-17T11:30:45.156Z,18.10
2023-04-17T11:33:15.999Z,17.40
2023-04-17T11:35:44.878Z,17.30
2023-04-17T11:38:11.630Z,17.80
2023-04-17T11:40:42.776Z,18.80
2023-04-17T11:43:09.993Z,19.60
2023-04-17T11:45:37.166Z,21.20
2023-04-17T11:48:04.475Z,19.90
2023-04-17T11:50:32.109Z,19.10
2023-04-17T11:53:02.644Z,18.60
2023-04-17T11:55:33.347Z,18.90
2023-04-17T11:58:05.525Z,18.30
2023-04-17T12:00:38.334Z,17.50
2023-04-17T12:03:24.658Z,17.10
2023-04-17T12:06:00.051Z,17.00
2023-04-17T12:08:28.695Z,16.40
2023-04-17T12:11:02.188Z,16.60
2023-04-17T12:13:32.747Z,17.20
2023-04-17T12:15:59.469Z,18.00
2023-04-17T12:18:26.321Z,17.90
2023-04-17T12:20:53.178Z,18.20
2023-04-17T12:23:19.961Z,17.60
2023-04-17T12:25:49.410Z,17.00
2023-04-17T12:28:17.373Z,16.50
2023-04-17T12:30:44.110Z,16.40
2023-04-17T12:33:10.978Z,16.30
2023-04-17T12:35:38.291Z,16.40
2023-04-17T12:38:05.129Z,16.70
2023-04-17T12:40:32.938Z,17.00
2023-04-17T12:42:59.683Z,17.40
2023-04-17T12:45:26.648Z,16.80
2023-04-17T12:47:57.220Z,16.60
2023-04-17T12:50:24.214Z,16.60
2023-04-17T12:52:51.106Z,16.70
2023-04-17T12:55:21.517Z,16.80
2023-04-17T12:57:48.249Z,16.70
2023-04-17T13:00:15.386Z,16.30
2023-04-17T13:02:42.396Z,16.40
2023-04-17T13:05:09.144Z,16.40
2023-04-17T13:07:35.744Z,16.60
2023-04-17T13:10:02.390Z,17.10
2023-04-17T13:12:28.994Z,18.00
2023-04-17T13:14:57.404Z,19.30
2023-04-17T13:17:24.454Z,20.20
2023-04-17T13:19:51.070Z,19.50
2023-04-17T13:22:17.892Z,19.00
2023-04-17T13:24:44.533Z,18.50
2023-04-17T13:27:11.146Z,17.80
2023-04-17T13:29:37.706Z,17.50
2023-04-17T13:32:04.378Z,17.00
2023-04-17T13:34:38.783Z,16.70
2023-04-17T13:37:13.720Z,16.60
2023-04-17T13:39:40.882Z,16.80
2023-04-17T13:42:13.100Z,17.10
2023-04-17T13:44:42.129Z,17.10
2023-04-17T13:47:09.192Z,17.00
2023-04-17T13:49:37.080Z,17.00
2023-04-17T13:52:03.967Z,16.90
2023-04-17T13:54:31.051Z,16.90
2023-04-17T13:56:59.027Z,16.60
2023-04-17T13:59:25.966Z,16.60
2023-04-17T14:01:53.083Z,16.40
2023-04-17T14:04:20.218Z,16.30
2023-04-17T14:06:49.672Z,16.10
2023-04-17T14:09:16.955Z,16.20
2023-04-17T14:11:43.768Z,16.10
2023-04-17T14:14:12.680Z,16.10
2023-04-17T14:16:43.298Z,16.40
2023-04-17T14:19:13.870Z,17.10
2023-04-17T14:21:41.496Z,18.50
2023-04-17T14:24:10.632Z,19.80
2023-04-17T14:26:37.810Z,19.90
2023-04-17T14:29:07.637Z,19.40
2023-04-17T14:31:34.553Z,18.50
2023-04-17T14:34:01.418Z,18.20
2023-04-17T14:36:28.302Z,17.70
2023-04-17T14:38:55.323Z,17.30
2023-04-17T14:41:22.224Z,16.70
2023-04-17T14:43:51.574Z,16.30
2023-04-17T14:46:18.398Z,16.00
2023-04-17T14:48:55.004Z,16.00
2023-04-17T14:51:23.444Z,16.00
2023-04-17T14:53:51.285Z,16.00
2023-04-17T14:56:18.201Z,15.80
2023-04-17T14:58:45.182Z,15.70
2023-04-17T15:01:11.964Z,15.90
2023-04-17T15:03:38.993Z,15.80
2023-04-17T15:06:05.909Z,15.80
2023-04-17T15:08:32.500Z,15.70
2023-04-17T15:10:59.149Z,15.50
2023-04-17T15:13:26.022Z,15.40
2023-04-17T15:15:52.681Z,15.00
2023-04-17T15:18:19.394Z,14.90
2023-04-17T15:20:46.252Z,14.80
2023-04-17T15:23:13.047Z,14.80
2023-04-17T15:25:39.898Z,14.80
2023-04-17T15:28:06.989Z,15.00
2023-04-17T15:30:33.570Z,14.90
2023-04-17T15:33:00.288Z,14.80
2023-04-17T15:35:27.069Z,14.90
2023-04-17T15:37:53.717Z,14.90
2023-04-17T15:40:20.936Z,14.90
2023-04-17T15:42:47.714Z,14.90
2023-04-17T15:45:16.910Z,15.00
2023-04-17T15:47:43.627Z,15.00
2023-04-17T15:50:10.462Z,15.10
2023-04-17T15:52:37.099Z,15.10
2023-04-17T15:55:04.132Z,15.20
2023-04-17T15:57:30.792Z,15.80
2023-04-17T15:59:57.429Z,16.00
2023-04-17T16:02:24.180Z,16.30
2023-04-17T16:04:50.867Z,17.00
2023-04-17T16:07:17.470Z,17.30
2023-04-17T16:09:48.008Z,17.80
2023-04-17T16:12:14.581Z,17.70
2023-04-17T16:14:41.126Z,16.90
2023-04-17T16:17:07.737Z,16.50
2023-04-17T16:19:35.316Z,16.20
2023-04-17T16:22:02.116Z,15.80
2023-04-17T16:24:28.701Z,15.70
2023-04-17T16:26:59.029Z,15.40
2023-04-17T16:29:25.845Z,15.10
2023-04-17T16:31:53.270Z,15.00
2023-04-17T16:34:20.818Z,15.10
2023-04-17T16:36:48.063Z,15.20
2023-04-17T16:41:57.743Z,15.20
2023-04-17T16:44:27.490Z,15.20
2023-04-17T16:52:22.909Z,15.20
2023-04-17T16:54:49.586Z,15.20
2023-04-17T16:57:16.182Z,15.20
2023-04-17T16:59:42.785Z,15.10
2023-04-17T17:02:09.482Z,15.00
2023-04-17T17:04:36.162Z,15.00
2023-04-17T17:07:02.865Z,14.80
2023-04-17T17:09:29.483Z,14.70
2023-04-17T17:11:56.784Z,14.60
2023-04-17T17:14:23.324Z,14.60
2023-04-17T17:16:49.944Z,14.60
2023-04-17T17:19:16.675Z,14.50
2023-04-17T17:21:43.220Z,14.60
2023-04-17T17:24:09.728Z,14.60
2023-04-17T17:26:36.846Z,14.60
2023-04-17T17:29:03.670Z,14.60
2023-04-17T17:31:30.284Z,14.50
2023-04-17T17:33:57.712Z,14.50
2023-04-17T17:36:24.547Z,14.50
2023-04-17T17:38:55.951Z,14.40
2023-04-17T17:41:26.287Z,14.40
2023-04-17T17:43:55.979Z,14.40
2023-04-17T17:46:24.132Z,14.30
2023-04-17T17:48:50.952Z,14.20
2023-04-17T17:51:17.601Z,14.10
2023-04-17T17:53:44.178Z,14.00
2023-04-17T17:56:10.930Z,13.90
2023-04-17T17:58:37.579Z,13.80
2023-04-17T18:01:04.262Z,13.70
2023-04-17T18:03:31.080Z,13.70
2023-04-17T18:05:57.890Z,13.70
2023-04-17T18:08:24.481Z,13.70
2023-04-17T18:10:51.052Z,13.60
2023-04-17T18:13:17.755Z,13.50
2023-04-17T18:15:44.489Z,13.50
2023-04-17T18:18:11.176Z,13.40
2023-04-17T18:20:39.091Z,13.30
2023-04-17T18:23:06.099Z,13.20
2023-04-17T18:25:35.209Z,13.10
2023-04-17T18:28:03.001Z,13.10
2023-04-17T18:30:34.710Z,13.00
2023-04-17T18:33:02.412Z,12.80
2023-04-17T18:35:29.172Z,12.80
2023-04-17T18:37:56.477Z,12.70
2023-04-17T18:40:23.148Z,12.60
2023-04-17T18:42:49.895Z,12.60
2023-04-17T18:45:16.527Z,12.50
2023-04-17T18:47:43.289Z,12.50
2023-04-17T18:50:11.066Z,12.40
2023-04-17T18:52:38.840Z,12.40
2023-04-17T18:55:06.034Z,12.40
2023-04-17T18:57:32.750Z,12.30
2023-04-17T18:59:59.396Z,12.20
2023-04-17T19:02:26.117Z,12.10
2023-04-17T19:04:53.928Z,12.10
2023-04-17T19:07:22.267Z,12.10
2023-04-17T19:09:48.933Z,12.10
2023-04-17T19:12:15.788Z,12.00
2023-04-17T19:14:42.572Z,12.00
2023-04-17T19:17:09.255Z,11.80
2023-04-17T19:19:36.133Z,11.70
2023-04-17T19:22:02.791Z,11.60
2023-04-17T19:24:29.720Z,11.60
2023-04-17T19:26:57.699Z,11.50
2023-04-17T19:29:24.417Z,11.40
2023-04-17T19:31:51.059Z,11.40
2023-04-17T19:34:20.367Z,11.40
2023-04-17T19:36:48.320Z,11.40
2023-04-17T19:39:20.012Z,11.40
2023-04-17T19:41:51.072Z,11.40
2023-04-17T19:44:18.868Z,11.40
2023-04-17T19:46:45.678Z,11.30
2023-04-17T19:49:13.096Z,11.30
2023-04-17T19:51:40.009Z,11.20
2023-04-17T19:54:06.866Z,11.20
2023-04-17T19:56:33.637Z,11.30
2023-04-17T19:59:04.063Z,11.40
2023-04-17T20:01:31.215Z,11.40
2023-04-17T20:03:59.273Z,11.50
2023-04-17T20:06:26.812Z,11.50
2023-04-17T20:08:53.874Z,11.50
2023-04-17T20:11:20.546Z,11.50
2023-04-17T20:13:47.142Z,11.40
2023-04-17T20:16:13.901Z,11.30
2023-04-17T20:18:41.722Z,11.20
2023-04-17T20:21:08.407Z,11.20
2023-04-17T20:23:35.283Z,11.10
2023-04-17T20:26:03.321Z,11.10
2023-04-17T20:28:30.200Z,11.00
2023-04-17T20:30:56.878Z,11.00
2023-04-17T20:33:23.674Z,10.90
2023-04-17T20:35:50.544Z,10.90
2023-04-17T20:38:17.497Z,10.80
2023-04-17T20:40:44.347Z,10.70
2023-04-17T20:43:11.075Z,10.70
2023-04-17T20:45:37.670Z,10.70
2023-04-17T20:48:04.494Z,10.80
2023-04-17T20:50:31.221Z,10.80
2023-04-17T20:52:58.028Z,10.80
2023-04-17T20:55:24.770Z,10.80
2023-04-17T20:57:51.409Z,10.80
2023-04-17T21:00:18.256Z,10.70
2023-04-17T21:02:45.145Z,10.70
2023-04-17T21:05:12.140Z,10.70
2023-04-17T21:07:38.873Z,10.70
2023-04-17T21:10:05.858Z,10.70
2023-04-17T21:12:35.483Z,10.70
2023-04-17T21:15:04.947Z,10.70
2023-04-17T21:17:31.585Z,10.70
2023-04-17T21:19:58.315Z,10.70
2023-04-17T21:22:25.146Z,10.60
2023-04-17T21:24:51.947Z,10.50
2023-04-17T21:27:18.624Z,10.40
2023-04-17T21:29:45.367Z,10.40
2023-04-17T21:32:12.039Z,10.40
2023-04-17T21:34:38.639Z,10.40
2023-04-17T21:37:05.485Z,10.50
2023-04-17T21:39:38.379Z,10.60
2023-04-17T21:42:05.330Z,10.50
2023-04-17T21:44:32.055Z,10.50
2023-04-17T21:46:58.756Z,10.50
2023-04-17T21:49:25.479Z,10.40
2023-04-17T21:51:52.102Z,10.40
2023-04-17T21:54:18.801Z,10.30
2023-04-17T21:56:45.467Z,10.20
2023-04-17T21:59:14.248Z,10.10
2023-04-17T22:01:40.938Z,10.00
2023-04-17T22:04:07.669Z,10.00
2023-04-17T22:06:35.668Z,10.00
2023-04-17T22:09:02.523Z,10.10
2023-04-17T22:11:29.201Z,10.10
2023-04-17T22:13:55.867Z,10.00
2023-04-17T22:16:22.585Z,10.00
2023-04-17T22:18:49.385Z,9.90
2023-04-17T22:21:16.118Z,9.80
2023-04-17T22:23:42.766Z,9.90
2023-04-17T22:26:09.504Z,9.80
2023-04-17T22:28:36.349Z,9.80
2023-04-17T22:31:03.206Z,9.70
2023-04-17T22:33:29.916Z,9.60
2023-04-17T22:35:56.560Z,9.60
2023-04-17T22:38:23.333Z,9.50
2023-04-17T22:40:50.023Z,9.40
2023-04-17T22:43:16.801Z,9.30
2023-04-17T22:45:43.611Z,9.30
2023-04-17T22:48:10.232Z,9.30
2023-04-17T22:50:40.769Z,9.30
2023-04-17T22:53:07.520Z,9.20
2023-04-17T22:55:34.253Z,9.10
2023-04-17T22:58:01.769Z,9.10
2023-04-17T23:00:30.580Z,9.10
2023-04-17T23:02:57.594Z,9.10
2023-04-17T23:08:10.206Z,9.00
2023-04-17T23:10:37.011Z,8.90
2023-04-17T23:13:03.701Z,8.80
2023-04-17T23:15:30.395Z,8.70
2023-04-17T23:17:57.218Z,8.60
2023-04-17T23:20:24.965Z,8.50
2023-04-17T23:22:51.831Z,8.50
2023-04-17T23:25:18.758Z,8.50
2023-04-17T23:27:45.460Z,8.30
2023-04-17T23:30:12.398Z,8.30
2023-04-17T23:32:41.546Z,8.20
2023-04-17T23:35:08.556Z,8.10
2023-04-17T23:37:35.770Z,8.10
2023-04-17T23:40:02.554Z,8.00
2023-04-17T23:42:29.212Z,7.90
2023-04-17T23:44:55.920Z,7.80
2023-04-17T23:47:22.719Z,7.80
2023-04-17T23:49:49.484Z,8.00
2023-04-17T23:52:19.686Z,8.00
2023-04-17T23:54:46.452Z,7.90
2023-04-17T23:57:13.231Z,7.80
2023-04-17T23:59:40.056Z,7.80
